KBEC/BEC METAR and TAF weather

Enter ICAO airport designator
Station Type Date Time Source
KBEC METAR 2020/07/06 23:35 UTC NOAA

KBEC 062335Z AUTO 07004KT 7SM CLR 26/20 A2996 RMK AO2 T02610196


Station Type Date Time Source
KBEC Decoded METAR 2020/07/06 23:35 UTC NOAA

Station name not available
Jul 06, 2020 - 07:35 PM EDT / 2020.07.06 2335 UTC
Wind: from the ENE (070 degrees) at 5 MPH (4 KT):0
Visibility: 7 mile(s):0
Sky conditions: clear
Temperature: 79.0 F (26.1 C)
Dew Point: 67.3 F (19.6 C)
Relative Humidity: 67%
Pressure (altimeter): 29.96 in. Hg (1014 hPa)
ob: KBEC 062335Z AUTO 07004KT 7SM CLR 26/20 A2996 RMK AO2 T02610196
cycle: 23

Station Type Date Time Source
KBEC TAF UTC NOAA

Error!

Example: see airport list